Time;durP1;ratioP1;P1;durP2;ratioP2;P2;SDS_P1;SDS_P2;PMS_P1;PMS_P2;Temp;Humidity;BMP_temperature;BMP_pressure;BME280_temperature;BME280_humidity;BME280_pressure;Samples;Min_cycle;Max_cycle;Signal;HPM_P1;HPM_P2
2023/05/30 03:02:31;;;;;;;3.70;1.67;;;;;;;21.68;40.24;100511.56;4772707;27;9217467;-76
2023/05/30 03:04:59;;;;;;;2.33;1.35;;;;;;;21.56;40.23;100506.53;5071968;28;20135;-75
2023/05/30 03:07:32;;;;;;;1.92;0.77;;;;;;;21.48;39.85;100509.31;5075548;28;20071;-77
2023/05/30 03:10:00;;;;;;;3.13;1.13;;;;;;;21.42;40.65;100517.34;5084952;28;20051;-76
2023/05/30 03:12:29;;;;;;;1.58;0.68;;;;;;;21.42;40.78;100513.84;5090094;28;20941;-76
2023/05/30 03:14:57;;;;;;;5.65;1.00;;;;;;;21.45;41.05;100514.63;5092994;28;20040;-73
2023/05/30 03:17:27;;;;;;;5.65;1.00;;;;;;;21.46;41.22;100526.91;5082638;28;20052;-77
2023/05/30 03:19:56;;;;;;;2.05;0.85;;;;;;;21.47;39.89;100525.16;5084386;28;20079;-73
2023/05/30 03:22:24;;;;;;;1.77;0.50;;;;;;;21.49;40.06;100526.00;5087929;28;20044;-75
2023/05/30 03:24:53;;;;;;;2.10;0.80;;;;;;;21.51;39.72;100532.97;5076383;28;20102;-74
2023/05/30 03:27:21;;;;;;;5.10;1.08;;;;;;;21.48;39.12;100533.00;5082074;28;20059;-77
2023/05/30 03:29:50;;;;;;;4.75;1.33;;;;;;;21.40;38.26;100531.41;5081982;28;20045;-74
2023/05/30 03:32:18;;;;;;;3.65;1.20;;;;;;;21.32;40.48;100539.41;5074246;28;20052;-78
2023/05/30 03:34:49;;;;;;;4.47;1.25;;;;;;;21.30;40.65;100541.19;5078814;28;20492;-75
2023/05/30 03:37:17;;;;;;;3.60;1.23;;;;;;;21.28;39.98;100537.72;5077375;28;20140;-75
2023/05/30 03:39:46;;;;;;;4.95;1.08;;;;;;;21.23;39.32;100543.06;5075948;28;20063;-74
2023/05/30 03:42:14;;;;;;;2.80;1.10;;;;;;;21.20;39.68;100543.13;5075655;28;20060;-76
2023/05/30 03:44:43;;;;;;;3.67;1.00;;;;;;;21.19;39.87;100554.56;5078937;28;20044;-74
2023/05/30 03:47:11;;;;;;;1.80;1.02;;;;;;;21.19;39.10;100558.94;5072290;28;20215;-78
2023/05/30 03:49:40;;;;;;;2.67;0.90;;;;;;;21.18;39.01;100562.47;5076731;28;20048;-77
2023/05/30 03:52:10;;;;;;;1.20;0.65;;;;;;;21.10;39.80;100558.22;5075609;28;20973;-77
2023/05/30 03:54:39;;;;;;;5.75;0.93;;;;;;;21.08;39.80;100573.16;5079961;28;20541;-76
2023/05/30 03:57:08;;;;;;;4.40;1.13;;;;;;;21.04;39.58;100575.88;5082374;28;20452;-77
2023/05/30 03:59:36;;;;;;;2.63;0.82;;;;;;;21.01;40.16;100579.44;5077687;28;20048;-74
2023/05/30 04:02:05;;;;;;;1.27;0.77;;;;;;;20.98;39.60;100591.75;5064810;27;20119;-73
2023/05/30 04:04:33;;;;;;;1.65;0.82;;;;;;;20.94;39.33;100596.19;5060535;28;20055;-71
2023/05/30 04:07:02;;;;;;;3.22;0.90;;;;;;;20.88;38.00;100596.28;5057347;28;20048;-74
2023/05/30 04:09:32;;;;;;;1.85;0.80;;;;;;;20.84;39.52;100598.06;5055501;28;20045;-75
2023/05/30 04:12:01;;;;;;;2.17;0.90;;;;;;;20.83;39.58;100603.38;5054134;28;20046;-74
2023/05/30 04:14:29;;;;;;;3.10;0.98;;;;;;;20.79;39.60;100606.94;5038542;28;20049;-75
2023/05/30 04:16:58;;;;;;;1.52;0.77;;;;;;;20.76;39.37;100604.38;5041540;28;20534;-74
2023/05/30 04:19:26;;;;;;;4.70;0.75;;;;;;;20.68;39.07;100615.88;5043155;28;20165;-72
2023/05/30 04:21:55;;;;;;;2.53;0.88;;;;;;;20.57;38.46;100615.16;5044451;28;20150;-75
2023/05/30 04:24:24;;;;;;;3.33;1.17;;;;;;;20.46;38.36;100625.78;5041584;28;20087;-75
2023/05/30 04:26:54;;;;;;;2.33;0.80;;;;;;;20.36;39.95;100624.13;5041141;28;20033;-74
2023/05/30 04:29:22;;;;;;;2.80;0.70;;;;;;;20.23;38.86;100627.84;5039135;28;20672;-73
2023/05/30 04:31:51;;;;;;;3.40;0.77;;;;;;;20.14;38.20;100643.72;5043476;28;20040;-74
2023/05/30 04:34:19;;;;;;;2.33;0.90;;;;;;;20.02;39.32;100644.69;5041220;28;20526;-75
2023/05/30 04:36:48;;;;;;;2.70;1.15;;;;;;;19.92;40.40;100648.31;5038899;28;20498;-75
2023/05/30 04:39:17;;;;;;;2.08;0.80;;;;;;;19.80;39.69;100655.44;5046897;28;20075;-74
2023/05/30 04:41:45;;;;;;;2.63;0.95;;;;;;;19.64;38.34;100649.44;5040546;28;21206;-76
2023/05/30 04:44:16;;;;;;;2.17;1.00;;;;;;;19.52;38.02;100649.56;5040897;28;20045;-77
2023/05/30 04:46:46;;;;;;;1.17;0.60;;;;;;;19.41;39.11;100652.25;5041830;28;20526;-71
2023/05/30 04:49:15;;;;;;;2.20;0.60;;;;;;;19.35;39.96;100654.94;5046092;28;20053;-75
2023/05/30 04:51:44;;;;;;;3.40;0.98;;;;;;;19.25;40.35;100656.75;5037010;28;20049;-76
2023/05/30 04:54:13;;;;;;;2.17;0.73;;;;;;;19.17;40.06;100657.69;5041238;28;20053;-75
2023/05/30 04:56:42;;;;;;;3.28;1.05;;;;;;;19.10;39.21;100656.00;5045178;28;20045;-75
2023/05/30 04:59:10;;;;;;;3.15;0.80;;;;;;;19.02;39.70;100653.44;5040485;28;20123;-76
2023/05/30 05:01:41;;;;;;;2.28;0.77;;;;;;;18.92;41.34;100654.38;5046301;27;20052;-76
2023/05/30 05:04:09;;;;;;;2.38;1.05;;;;;;;18.81;40.66;100654.47;5048484;28;20041;-72
2023/05/30 05:06:38;;;;;;;5.40;1.00;;;;;;;18.69;40.31;100659.72;5044694;28;20037;-75
2023/05/30 05:09:06;;;;;;;6.10;1.10;;;;;;;18.51;40.24;100666.81;5044601;28;20130;-75
2023/05/30 05:11:35;;;;;;;4.20;1.40;;;;;;;18.37;40.96;100674.72;5041114;28;20056;-75
2023/05/30 05:14:04;;;;;;;2.95;1.17;;;;;;;18.27;40.51;100667.78;5044954;28;20534;-76
2023/05/30 05:16:32;;;;;;;2.38;0.75;;;;;;;18.14;40.61;100672.19;5043299;28;20166;-76
2023/05/30 05:19:03;;;;;;;3.30;0.73;;;;;;;18.05;43.10;100685.31;5043113;28;20499;-76
2023/05/30 05:21:31;;;;;;;1.60;1.20;;;;;;;17.99;41.26;100682.69;5042880;28;20048;-76
2023/05/30 05:24:00;;;;;;;2.42;0.80;;;;;;;17.90;39.83;100680.97;5042760;28;20052;-74
2023/05/30 05:26:28;;;;;;;3.80;1.00;;;;;;;17.80;41.86;100673.97;5044086;28;20090;-75
2023/05/30 05:28:57;;;;;;;3.38;1.10;;;;;;;17.82;45.25;100694.94;5041397;28;20130;-73
2023/05/30 05:31:26;;;;;;;4.20;0.75;;;;;;;17.78;43.47;100697.53;5044974;28;20509;-74
2023/05/30 05:34:01;;;;;;;5.00;1.00;;;;;;;17.76;42.43;100707.13;5041619;28;20182;-74
2023/05/30 05:36:32;;;;;;;3.10;1.13;;;;;;;17.73;41.62;100707.13;5047223;28;20092;-75
2023/05/30 05:39:00;;;;;;;2.35;0.70;;;;;;;17.71;41.84;100706.25;5041220;28;20045;-75
2023/05/30 05:41:29;;;;;;;2.08;0.60;;;;;;;17.68;42.42;100711.47;5044781;28;20103;-75
2023/05/30 05:43:57;;;;;;;3.30;0.70;;;;;;;17.66;42.28;100715.88;5045774;28;20056;-75
2023/05/30 05:46:26;;;;;;;2.50;1.05;;;;;;;17.56;40.54;100716.72;5045237;28;20102;-75
2023/05/30 05:48:55;;;;;;;2.05;0.75;;;;;;;17.51;41.34;100719.34;5046543;28;20428;-75
2023/05/30 05:51:23;;;;;;;1.17;0.65;;;;;;;17.44;41.50;100712.34;5039331;28;20127;-75
2023/05/30 05:53:54;;;;;;;2.15;0.63;;;;;;;17.44;41.13;100719.34;5041771;28;20045;-75
2023/05/30 05:56:22;;;;;;;2.00;0.75;;;;;;;17.37;41.56;100739.38;5042445;28;20491;-74
2023/05/30 05:58:51;;;;;;;2.35;0.70;;;;;;;17.32;43.14;100734.16;5042121;28;20465;-75
2023/05/30 06:01:19;;;;;;;6.13;1.25;;;;;;;17.23;41.12;100736.75;5042077;27;20123;-76
2023/05/30 06:03:48;;;;;;;6.57;1.00;;;;;;;17.18;41.80;100728.03;5039240;28;20045;-75
2023/05/30 06:06:16;;;;;;;2.83;0.90;;;;;;;17.12;42.12;100736.72;5039514;28;20049;-75
2023/05/30 06:08:48;;;;;;;3.35;1.00;;;;;;;17.07;43.46;100734.97;5044668;28;20044;-74
2023/05/30 06:11:18;;;;;;;1.67;0.85;;;;;;;17.02;43.42;100737.56;5039016;28;20068;-75
2023/05/30 06:13:46;;;;;;;4.60;0.80;;;;;;;17.00;43.85;100743.66;5040734;28;20055;-74
2023/05/30 06:16:15;;;;;;;3.15;1.00;;;;;;;16.95;44.42;100747.13;5043404;28;20098;-75
2023/05/30 06:18:43;;;;;;;4.35;0.98;;;;;;;16.91;43.15;100749.75;5040657;28;20597;-74
2023/05/30 06:21:12;;;;;;;3.30;1.00;;;;;;;16.84;42.99;100746.22;5038683;28;20183;-74
2023/05/30 06:23:40;;;;;;;3.65;1.02;;;;;;;16.71;43.56;100747.88;5040500;28;20133;-75
2023/05/30 06:26:09;;;;;;;2.65;1.10;;;;;;;16.66;44.39;100753.97;5039377;28;20044;-75
2023/05/30 06:28:50;;;;;;;1.42;0.80;;;;;;;16.60;44.16;100756.53;5041746;28;20495;-74
2023/05/30 06:31:18;;;;;;;3.47;0.77;;;;;;;16.52;44.65;100764.34;5043501;28;20052;-75
2023/05/30 06:33:47;;;;;;;6.95;0.90;;;;;;;16.44;44.69;100772.13;5037778;28;20789;-75
2023/05/30 06:36:16;;;;;;;1.92;0.70;;;;;;;16.39;44.24;100771.22;5040714;28;20064;-74
2023/05/30 06:38:44;;;;;;;3.47;0.90;;;;;;;16.34;44.36;100767.72;5038599;28;20044;-75
2023/05/30 06:41:13;;;;;;;1.90;0.98;;;;;;;16.27;44.79;100768.53;5039020;28;20057;-76
2023/05/30 06:43:41;;;;;;;5.60;0.98;;;;;;;16.22;44.72;100775.47;5042472;28;20049;-74
2023/05/30 06:46:12;;;;;;;2.30;0.82;;;;;;;16.17;45.33;100774.56;5044745;28;20053;-75
2023/05/30 06:48:40;;;;;;;2.95;0.73;;;;;;;16.08;45.19;100777.97;5041281;28;20119;-74
2023/05/30 06:51:08;;;;;;;4.80;1.00;;;;;;;16.04;45.04;100782.31;5043102;28;20059;-74
2023/05/30 06:53:37;;;;;;;6.55;1.25;;;;;;;15.97;45.24;100788.34;5042548;28;20495;-74
2023/05/30 06:56:06;;;;;;;4.20;1.38;;;;;;;15.93;45.68;100786.56;5043695;28;20045;-76
2023/05/30 06:58:34;;;;;;;1.92;1.05;;;;;;;15.79;46.19;100778.63;5043927;28;20037;-76
2023/05/30 07:01:10;;;;;;;6.70;0.98;;;;;;;15.76;46.68;100794.25;5041095;27;20612;-75
2023/05/30 07:03:47;;;;;;;4.90;1.10;;;;;;;15.69;46.88;100797.63;5058631;28;20485;-74
2023/05/30 07:06:15;;;;;;;1.80;1.13;;;;;;;15.64;46.19;100794.97;5061696;28;20620;-75
2023/05/30 07:08:44;;;;;;;1.98;1.00;;;;;;;15.60;46.33;100801.03;5067414;28;20049;-74
2023/05/30 07:11:13;;;;;;;9.82;1.10;;;;;;;15.55;47.43;100800.09;5064537;28;20585;-75
2023/05/30 07:13:41;;;;;;;5.25;1.23;;;;;;;15.48;47.88;100800.91;5058687;28;20570;-75
2023/05/30 07:16:10;;;;;;;2.72;1.10;;;;;;;15.40;46.73;100798.22;5060387;28;20068;-75
2023/05/30 07:18:38;;;;;;;4.97;1.42;;;;;;;15.29;48.62;100803.31;5056379;28;20050;-75
2023/05/30 07:21:09;;;;;;;3.90;0.90;;;;;;;15.23;48.77;100812.78;5063976;28;20049;-75
2023/05/30 07:23:37;;;;;;;6.07;1.05;;;;;;;15.02;48.08;100800.41;5065016;28;20032;-75
2023/05/30 07:26:06;;;;;;;5.80;1.10;;;;;;;14.96;49.36;100818.56;5063781;28;20041;-75
2023/05/30 07:28:34;;;;;;;2.20;0.75;;;;;;;14.85;48.86;100821.03;5060171;28;20045;-75
2023/05/30 07:31:03;;;;;;;3.90;1.10;;;;;;;14.80;48.53;100823.59;5060666;28;20055;-75
2023/05/30 07:33:31;;;;;;;3.65;1.08;;;;;;;14.75;48.64;100820.06;5061511;28;20048;-76
2023/05/30 07:36:00;;;;;;;3.50;0.98;;;;;;;14.70;48.95;100818.22;5059880;28;20044;-75
2023/05/30 07:38:30;;;;;;;2.60;0.75;;;;;;;14.65;50.15;100824.22;5059656;28;20067;-74
2023/05/30 07:40:59;;;;;;;2.10;0.93;;;;;;;14.62;50.00;100826.81;5062476;28;20657;-74
2023/05/30 07:43:27;;;;;;;4.75;0.80;;;;;;;14.58;50.23;100831.94;5063923;28;20106;-74
2023/05/30 07:45:56;;;;;;;2.38;0.90;;;;;;;14.53;48.93;100829.25;5058698;28;20135;-75
2023/05/30 07:48:25;;;;;;;2.42;1.27;;;;;;;14.43;49.44;100830.84;5064828;28;20040;-75
2023/05/30 07:50:54;;;;;;;4.53;0.85;;;;;;;14.31;48.94;100828.03;5067443;28;20036;-74
2023/05/30 07:53:22;;;;;;;6.03;1.25;;;;;;;14.18;50.17;100820.91;5063402;28;20105;-74
2023/05/30 07:55:52;;;;;;;3.75;1.15;;;;;;;14.21;50.77;100831.38;5066354;28;20045;-75
2023/05/30 07:58:22;;;;;;;2.75;0.73;;;;;;;14.17;51.78;100824.34;5065825;28;20498;-75
2023/05/30 08:00:51;;;;;;;4.63;0.70;;;;;;;14.13;50.84;100833.84;5065752;28;20124;-76
2023/05/30 08:03:19;;;;;;;5.13;0.80;;;;;;;14.08;50.57;100830.28;5062803;27;20057;-75
2023/05/30 08:05:50;;;;;;;3.53;0.98;;;;;;;14.01;50.36;100838.84;5059717;28;20044;-75
2023/05/30 08:08:19;;;;;;;2.92;1.05;;;;;;;13.93;50.52;100846.53;5066427;28;20067;-75
2023/05/30 08:10:48;;;;;;;3.10;1.00;;;;;;;13.83;50.61;100847.19;5065391;28;20663;-76
2023/05/30 08:13:20;;;;;;;7.43;1.33;;;;;;;13.78;51.52;100841.91;5064968;28;20580;-75
2023/05/30 08:15:48;;;;;;;2.38;0.90;;;;;;;13.71;51.46;100849.59;5061169;28;20040;-75
2023/05/30 08:18:17;;;;;;;6.22;0.88;;;;;;;13.58;52.12;100856.28;5064356;28;20529;-74
2023/05/30 08:20:46;;;;;;;3.33;1.05;;;;;;;13.54;52.32;100863.16;5066335;28;20068;-74
2023/05/30 08:23:14;;;;;;;4.60;1.08;;;;;;;13.54;53.11;100865.75;5069534;28;20056;-75
2023/05/30 08:25:45;;;;;;;5.30;1.42;;;;;;;13.54;53.20;100863.16;5068156;28;20052;-75
2023/05/30 08:28:13;;;;;;;4.05;1.02;;;;;;;13.52;52.84;100872.66;5062845;28;20056;-75
2023/05/30 08:30:48;;;;;;;3.75;1.60;;;;;;;13.44;52.43;100876.81;5068580;28;20056;-75
2023/05/30 08:33:17;;;;;;;7.07;1.10;;;;;;;13.38;53.56;100876.72;5068357;28;20043;-75
2023/05/30 08:35:46;;;;;;;4.85;1.05;;;;;;;13.34;53.99;100880.09;5062668;28;20053;-76
2023/05/30 08:38:15;;;;;;;7.00;0.93;;;;;;;13.32;53.94;100876.56;5063372;28;20406;-75
2023/05/30 08:40:45;;;;;;;1.95;0.80;;;;;;;13.27;54.50;100884.25;5062500;28;20118;-74
2023/05/30 08:43:14;;;;;;;1.50;0.80;;;;;;;13.25;54.31;100879.88;5062116;28;20052;-74
2023/05/30 08:45:44;;;;;;;2.42;0.88;;;;;;;13.21;54.17;100884.09;5070011;28;20044;-75
2023/05/30 08:48:16;;;;;;;5.38;1.05;;;;;;;13.14;54.81;100887.41;5061925;28;20053;-76
2023/05/30 08:50:45;;;;;;;2.08;0.90;;;;;;;13.07;54.74;100891.59;5067390;28;20063;-75
2023/05/30 08:53:16;;;;;;;4.07;0.88;;;;;;;13.01;55.43;100891.50;5064677;28;20403;-75
2023/05/30 08:55:48;;;;;;;5.45;0.75;;;;;;;12.99;56.53;100890.59;5065323;28;20131;-75
2023/05/30 08:58:27;;;;;;;6.88;1.02;;;;;;;12.96;55.94;100898.28;5061792;28;20653;-75
2023/05/30 09:00:58;;;;;;;3.35;1.10;;;;;;;12.90;55.70;100898.19;5063003;28;20045;-75
2023/05/30 09:03:35;;;;;;;4.88;0.90;;;;;;;12.88;55.60;100905.06;5063702;27;20056;-75
2023/05/30 09:06:04;;;;;;;2.97;1.23;;;;;;;12.86;56.23;100905.00;5062347;28;20099;-75
2023/05/30 09:08:33;;;;;;;6.13;1.40;;;;;;;12.82;56.86;100904.91;5061887;28;20528;-76
2023/05/30 09:11:03;;;;;;;7.32;1.27;;;;;;;12.81;56.77;100908.34;5064181;28;20490;-75
2023/05/30 09:13:31;;;;;;;6.60;1.23;;;;;;;12.73;56.92;100908.16;5064388;28;20716;-76
2023/05/30 09:16:01;;;;;;;2.08;1.10;;;;;;;12.67;56.67;100908.03;5066431;28;20048;-76
2023/05/30 09:18:31;;;;;;;2.00;1.20;;;;;;;12.63;57.63;100908.81;5063666;28;20056;-76
2023/05/30 09:21:01;;;;;;;2.97;1.00;;;;;;;12.58;57.22;100912.16;5064414;28;20627;-76
2023/05/30 09:23:30;;;;;;;2.58;0.82;;;;;;;12.53;57.89;100910.31;5071300;28;20052;-75
2023/05/30 09:26:01;;;;;;;3.25;1.05;;;;;;;12.50;58.52;100913.69;5060991;28;20155;-75
2023/05/30 09:28:32;;;;;;;7.10;1.08;;;;;;;12.45;58.03;100917.03;5062346;28;20146;-75
2023/05/30 09:31:03;;;;;;;2.42;1.35;;;;;;;12.39;58.54;100915.13;5063202;28;20040;-76
2023/05/30 09:33:46;;;;;;;1.40;0.90;;;;;;;12.28;58.85;100920.09;5060835;28;20049;-75
2023/05/30 09:36:19;;;;;;;4.20;1.10;;;;;;;12.23;60.14;100929.47;5059987;28;20509;-75
2023/05/30 09:38:58;;;;;;;2.67;0.88;;;;;;;12.20;59.44;100931.97;5060562;28;20128;-77
2023/05/30 09:41:27;;;;;;;7.15;1.27;;;;;;;12.17;60.43;100929.31;5058798;28;20051;-77
2023/05/30 09:43:57;;;;;;;2.38;1.20;;;;;;;12.15;59.89;100938.75;5065856;28;20521;-77
2023/05/30 09:46:28;;;;;;;5.72;1.10;;;;;;;12.11;59.86;100944.69;5060282;28;20076;-75
2023/05/30 09:48:57;;;;;;;3.70;1.15;;;;;;;12.03;59.72;100941.03;5057363;28;20048;-73
2023/05/30 09:51:27;;;;;;;2.88;1.10;;;;;;;12.00;59.41;100947.00;5064497;28;20048;-73
2023/05/30 09:53:57;;;;;;;3.50;1.02;;;;;;;12.00;59.89;100941.81;5061762;28;20136;-74
2023/05/30 09:56:37;;;;;;;4.30;1.13;;;;;;;11.99;60.46;100954.75;5065696;28;20044;-76
2023/05/30 09:59:09;;;;;;;4.70;1.02;;;;;;;11.95;60.62;100949.47;5066711;28;20552;-75
2023/05/30 10:01:41;;;;;;;7.05;1.63;;;;;;;11.91;62.25;100941.56;5065107;28;20674;-75
2023/05/30 10:04:14;;;;;;;6.63;0.93;;;;;;;11.88;61.10;100950.16;5043510;27;20045;-76
2023/05/30 10:06:45;;;;;;;3.80;0.88;;;;;;;11.86;61.31;100948.31;5039192;28;20045;-74
2023/05/30 10:09:14;;;;;;;12.80;1.90;;;;;;;11.84;61.60;100955.16;5048094;28;20107;-75
2023/05/30 10:11:44;;;;;;;8.07;1.23;;;;;;;11.83;61.24;100959.47;5046161;28;20106;-76
2023/05/30 10:14:13;;;;;;;5.88;1.90;;;;;;;11.83;61.26;100956.91;5038133;28;20517;-76
2023/05/30 10:16:49;;;;;;;3.20;0.82;;;;;;;11.78;62.48;100950.72;5045562;28;20112;-77
2023/05/30 10:19:20;;;;;;;2.20;1.05;;;;;;;11.78;61.99;100955.03;5046347;28;20139;-76
2023/05/30 10:21:49;;;;;;;4.22;0.90;;;;;;;11.74;62.07;100954.91;5039452;28;20141;-75
2023/05/30 10:24:19;;;;;;;2.55;0.88;;;;;;;11.74;62.25;100954.03;5044951;28;20057;-74
2023/05/30 10:26:50;;;;;;;7.20;1.20;;;;;;;11.69;62.30;100960.81;5044250;28;20049;-74
2023/05/30 10:29:23;;;;;;;4.68;1.65;;;;;;;11.64;63.24;100958.09;5042413;28;20076;-74
2023/05/30 10:31:55;;;;;;;;;;;;;;;11.60;63.03;100965.75;5042133;28;20119;-76
2023/05/30 10:34:29;;;;;;;6.57;1.20;;;;;;;11.59;62.82;100963.97;5038425;28;20828;-76
2023/05/30 10:36:59;;;;;;;4.50;0.73;;;;;;;11.57;63.39;100968.22;5035759;28;20067;-74
2023/05/30 10:39:34;;;;;;;4.43;1.55;;;;;;;11.56;63.34;100976.84;5041140;28;20049;-76
2023/05/30 10:42:07;;;;;;;6.63;1.42;;;;;;;11.55;63.75;100972.53;5042403;28;20049;-76
2023/05/30 10:44:54;;;;;;;4.55;0.77;;;;;;;11.56;63.50;100982.03;5039910;28;20048;-76
2023/05/30 10:47:32;;;;;;;5.20;1.25;;;;;;;11.53;64.43;100964.69;5040339;28;20072;-76
2023/05/30 10:50:07;;;;;;;7.70;1.58;;;;;;;11.55;63.54;100977.69;5039591;28;20038;-75
2023/05/30 10:52:35;;;;;;;2.58;1.02;;;;;;;11.47;64.02;100969.69;5041280;28;20482;-75
2023/05/30 10:55:10;;;;;;;2.05;1.08;;;;;;;11.49;63.85;100984.44;5044391;28;20045;-77
2023/05/30 10:57:38;;;;;;;2.00;1.05;;;;;;;11.46;65.62;100981.75;5035196;28;20052;-75
2023/05/30 11:00:19;;;;;;;7.13;1.40;;;;;;;11.46;65.25;100993.84;5039031;28;20084;-77
2023/05/30 11:02:54;;;;;;;1.67;1.00;;;;;;;11.40;64.30;100984.16;5050411;28;20129;-76
2023/05/30 11:05:30;;;;;;;4.57;1.05;;;;;;;11.40;64.68;100989.34;5062684;28;20036;-75
2023/05/30 11:08:00;;;;;;;4.28;1.15;;;;;;;11.42;65.95;100992.88;5066983;28;20234;-76
2023/05/30 11:10:29;;;;;;;7.85;1.58;;;;;;;11.43;66.12;100994.66;5063540;28;20064;-75
2023/05/30 11:13:09;;;;;;;5.53;1.10;;;;;;;11.41;65.06;100993.72;5061357;28;20053;-75
2023/05/30 11:15:43;;;;;;;4.03;1.65;;;;;;;11.37;65.17;100991.84;5062344;28;20498;-76
2023/05/30 11:18:21;;;;;;;3.05;1.10;;;;;;;11.33;66.00;100987.41;5058969;28;20057;-75
2023/05/30 11:20:57;;;;;;;5.10;0.90;;;;;;;11.33;65.93;100992.59;5065846;28;20044;-73
2023/05/30 11:23:27;;;;;;;1.98;1.00;;;;;;;11.23;66.00;100981.09;5070117;28;20049;-75
2023/05/30 11:25:57;;;;;;;4.40;1.35;;;;;;;11.32;66.48;100996.03;5066839;28;20128;-76
2023/05/30 11:28:36;;;;;;;10.73;1.20;;;;;;;11.32;65.78;101001.22;5068050;28;20064;-76
2023/05/30 11:31:20;;;;;;;3.00;0.55;;;;;;;11.27;67.05;100993.31;5065571;28;20057;-74
2023/05/30 11:33:51;;;;;;;3.72;1.38;;;;;;;11.25;66.56;101007.91;5060520;28;20045;-74
2023/05/30 11:36:20;;;;;;;3.78;0.93;;;;;;;11.21;65.85;101003.47;5063265;28;20048;-75
2023/05/30 11:38:52;;;;;;;1.70;1.00;;;;;;;11.23;67.07;101008.69;5058597;28;20040;-75
2023/05/30 11:41:22;;;;;;;8.90;1.50;;;;;;;11.22;67.40;101005.22;5063398;28;20048;-74
2023/05/30 11:43:51;;;;;;;7.70;1.10;;;;;;;11.24;66.89;101007.84;5068549;28;20044;-75
2023/05/30 11:46:20;;;;;;;1.92;1.00;;;;;;;11.23;67.23;101003.53;5064223;28;20051;-77
2023/05/30 11:48:50;;;;;;;5.10;1.00;;;;;;;11.21;66.74;101007.78;5066014;28;20053;-75
2023/05/30 11:51:18;;;;;;;4.38;1.33;;;;;;;11.20;66.65;101018.94;5069092;28;20135;-76
2023/05/30 11:53:47;;;;;;;4.80;1.00;;;;;;;11.19;67.27;101017.19;5057306;28;20132;-74
2023/05/30 11:56:15;;;;;;;3.47;0.90;;;;;;;11.19;66.14;101017.19;5067103;28;20047;-76
2023/05/30 11:58:44;;;;;;;4.93;1.13;;;;;;;11.19;66.79;101023.25;5066847;28;20036;-73
2023/05/30 12:01:13;;;;;;;2.13;1.27;;;;;;;11.16;66.50;101009.34;5063888;28;20128;-75
2023/05/30 12:03:45;;;;;;;7.40;1.38;;;;;;;11.17;65.99;101011.09;5069904;28;20175;-77
2023/05/30 12:06:16;;;;;;;6.57;1.00;;;;;;;11.19;66.91;101027.56;5067916;28;20053;-75
2023/05/30 12:08:45;;;;;;;4.22;1.02;;;;;;;11.18;65.97;101018.00;5064269;28;20131;-73
2023/05/30 12:11:14;;;;;;;5.22;1.45;;;;;;;11.19;65.93;101024.97;5064570;28;20036;-76
2023/05/30 12:13:43;;;;;;;7.57;1.00;;;;;;;11.19;66.33;101018.06;5063899;28;20131;-73
2023/05/30 12:16:12;;;;;;;7.30;1.00;;;;;;;11.17;66.97;101026.63;5052880;28;20124;-74
2023/05/30 12:18:41;;;;;;;1.20;0.80;;;;;;;11.14;65.46;101026.53;5064305;28;20063;-73
2023/05/30 12:21:14;;;;;;;2.78;0.88;;;;;;;11.14;65.56;101035.19;5058781;28;20095;-74
2023/05/30 12:23:43;;;;;;;2.50;1.15;;;;;;;11.16;66.01;101030.06;5061740;28;20052;-75
2023/05/30 12:26:18;;;;;;;8.65;1.48;;;;;;;11.17;66.48;101031.81;5056328;28;20044;-74
2023/05/30 12:28:47;;;;;;;2.67;0.95;;;;;;;11.15;66.24;101038.66;5063817;28;20044;-73
2023/05/30 12:31:25;;;;;;;1.83;0.85;;;;;;;11.17;65.25;101042.16;5063118;28;20048;-74
2023/05/30 12:33:54;;;;;;;8.65;1.05;;;;;;;11.18;65.86;101047.41;5061800;28;20110;-74
2023/05/30 12:36:25;;;;;;;2.45;0.90;;;;;;;11.20;65.52;101043.16;5063756;28;20049;-73
2023/05/30 12:38:57;;;;;;;4.32;0.82;;;;;;;11.20;65.71;101055.22;5061222;28;20048;-74
2023/05/30 12:41:29;;;;;;;3.45;0.75;;;;;;;11.22;65.42;101048.38;5065452;28;20174;-77
2023/05/30 12:43:57;;;;;;;;;;;;;;;11.25;67.04;101064.03;5065103;28;20736;-72
2023/05/30 12:46:28;;;;;;;2.35;0.90;;;;;;;11.19;67.85;101074.19;5063589;28;19928;-75
2023/05/30 12:48:56;;;;;;;3.22;1.20;;;;;;;11.09;67.70;101060.06;5059867;28;20072;-73
2023/05/30 12:51:27;;;;;;;7.28;1.27;;;;;;;11.18;65.02;101077.59;5058982;28;20048;-73
2023/05/30 12:53:55;;;;;;;1.42;0.80;;;;;;;11.22;65.62;101071.69;5063515;28;20048;-76
2023/05/30 12:56:24;;;;;;;3.17;1.17;;;;;;;11.24;66.36;101073.47;5059053;28;20037;-74
2023/05/30 12:58:53;;;;;;;8.65;0.98;;;;;;;11.26;66.49;101068.38;5061651;28;20048;-75
2023/05/30 13:01:21;;;;;;;2.03;0.90;;;;;;;11.21;65.43;101082.88;5070533;28;20136;-74
2023/05/30 13:03:50;;;;;;;5.10;1.00;;;;;;;11.23;66.82;101076.03;5069158;27;20059;-74
2023/05/30 13:06:18;;;;;;;3.45;1.27;;;;;;;11.26;68.00;101076.13;5067054;28;20490;-74
2023/05/30 13:08:49;;;;;;;8.50;1.23;;;;;;;11.29;65.56;101082.31;5066961;28;20044;-74
2023/05/30 13:11:17;;;;;;;9.32;1.45;;;;;;;11.28;65.61;101077.06;5068537;28;20117;-74
2023/05/30 13:13:46;;;;;;;2.67;0.90;;;;;;;11.28;65.68;101087.44;5064280;28;20860;-73
2023/05/30 13:16:14;;;;;;;4.00;0.80;;;;;;;11.31;66.17;101077.16;5063537;28;20052;-75
2023/05/30 13:18:43;;;;;;;4.93;1.08;;;;;;;11.33;66.85;101080.66;5063959;28;20052;-74
2023/05/30 13:21:11;;;;;;;8.30;1.67;;;;;;;11.38;65.93;101092.06;5060683;28;20045;-74
2023/05/30 13:23:40;;;;;;;8.55;1.52;;;;;;;11.41;66.60;101084.41;5064938;28;20143;-76
2023/05/30 13:26:12;;;;;;;3.13;1.10;;;;;;;11.41;66.87;101084.41;5059572;28;20055;-76
2023/05/30 13:28:40;;;;;;;5.00;1.43;;;;;;;11.43;66.72;101098.28;5062935;28;20059;-76
2023/05/30 13:31:09;;;;;;;3.35;1.00;;;;;;;11.44;66.59;101089.66;5062793;28;20053;-76
2023/05/30 13:33:38;;;;;;;4.07;1.33;;;;;;;11.51;66.75;101098.50;5069699;28;20064;-76
2023/05/30 13:36:07;;;;;;;4.07;1.27;;;;;;;11.55;66.81;101104.69;5063867;28;20502;-74
2023/05/30 13:38:35;;;;;;;2.20;0.95;;;;;;;11.53;66.74;101100.31;5065796;28;20059;-75
2023/05/30 13:41:04;;;;;;;2.05;0.77;;;;;;;11.55;66.83;101102.97;5061987;28;20098;-73
2023/05/30 13:43:34;;;;;;;4.35;1.13;;;;;;;11.58;68.04;101102.19;5059950;28;20567;-73
2023/05/30 13:46:03;;;;;;;5.88;1.17;;;;;;;11.65;66.09;101099.81;5068736;28;21208;-73
2023/05/30 13:48:31;;;;;;;3.42;1.08;;;;;;;11.69;65.63;101106.84;5068591;28;20040;-75
2023/05/30 13:51:00;;;;;;;4.43;1.55;;;;;;;11.72;68.04;101106.06;5070999;28;20569;-73
2023/05/30 13:53:29;;;;;;;4.93;1.30;;;;;;;11.77;66.17;101101.00;5083533;28;20041;-73
2023/05/30 13:55:57;;;;;;;4.78;0.95;;;;;;;11.76;65.47;101113.09;5079939;28;20057;-74
2023/05/30 13:58:26;;;;;;;6.68;1.40;;;;;;;11.78;65.77;101113.16;5087762;28;20037;-73
2023/05/30 14:00:56;;;;;;;4.45;1.25;;;;;;;11.80;64.75;101111.50;5082632;28;20056;-74
2023/05/30 14:03:24;;;;;;;5.47;1.30;;;;;;;11.87;66.60;101111.75;5067571;27;20110;-72
2023/05/30 14:05:53;;;;;;;5.30;1.17;;;;;;;11.94;66.13;101115.41;5062200;28;20053;-73
2023/05/30 14:08:23;;;;;;;7.00;2.03;;;;;;;12.02;65.92;101121.69;5065111;28;20565;-72
2023/05/30 14:10:51;;;;;;;3.30;1.33;;;;;;;12.12;64.94;101117.66;5063092;28;20049;-72
2023/05/30 14:13:20;;;;;;;3.05;1.20;;;;;;;12.19;65.31;101119.59;5067622;28;20047;-72
2023/05/30 14:15:48;;;;;;;7.13;1.95;;;;;;;12.24;65.49;101125.78;5059554;28;20457;-72
2023/05/30 14:18:18;;;;;;;9.18;1.40;;;;;;;12.34;66.07;101125.19;5064613;28;20512;-74
2023/05/30 14:20:47;;;;;;;2.88;0.75;;;;;;;12.43;64.34;101128.91;5065661;28;20526;-74
2023/05/30 14:23:16;;;;;;;1.50;0.65;;;;;;;12.46;63.15;101121.19;5068343;28;20395;-74
2023/05/30 14:25:45;;;;;;;4.03;0.63;;;;;;;12.51;62.90;101122.22;5064776;28;20052;-74
2023/05/30 14:28:13;;;;;;;5.40;0.90;;;;;;;12.55;62.60;101124.03;5065377;28;20135;-74
2023/05/30 14:30:42;;;;;;;5.45;1.50;;;;;;;12.57;62.59;101123.28;5062887;28;20505;-73
2023/05/30 14:33:10;;;;;;;3.00;1.00;;;;;;;12.62;61.74;101123.41;5065515;28;20550;-74
2023/05/30 14:35:40;;;;;;;4.40;1.13;;;;;;;12.72;61.62;101127.97;5064676;28;20490;-73
2023/05/30 14:38:09;;;;;;;5.05;1.25;;;;;;;12.77;60.57;101136.75;5063396;28;20052;-73
2023/05/30 14:40:37;;;;;;;4.45;0.77;;;;;;;12.84;61.35;101142.13;5066359;28;20053;-73